Sweet Home, Arkansas
Current Conditions -  °F | °C
As of 8:53 PM on Thursday 18 Dec 2014 (Local Time) from KLIT Reporting Station
Haze Haze  
Wind Chill: 40°   Ceiling: 600
Heat Index: 43°   Visibility: 4mi
Dew Point: 38°   Wind: 5mph
Humidity: 82%   Direction: 10°N
Pressure: 30.25"   Gusts: NA
Location:  34.69°N, 92.24°W
Report Text: KLIT 190253Z 01004KT 4SM BR OVC006 06/03 A3025 RMK AO2 SLP245 T00610033 51013
Loading
Personal Weather Stations






























Interactive Weather Map New forecast layout! Learn more

10-Day Weather Forecast

Advertisements
Track Severe Weather on mobile